createdAt,value
2019-01-23T00:00:58.666Z,99.65
2019-01-23T00:03:28.159Z,94.60
2019-01-23T00:05:57.474Z,92.95
2019-01-23T00:08:26.795Z,98.60
2019-01-23T00:10:56.075Z,96.92
2019-01-23T00:13:27.705Z,101.00
2019-01-23T00:15:57.106Z,101.35
2019-01-23T00:18:26.379Z,92.35
2019-01-23T00:20:55.666Z,104.23
2019-01-23T00:23:25.027Z,106.80
2019-01-23T00:25:54.290Z,98.00
2019-01-23T00:28:23.522Z,101.60
2019-01-23T00:30:55.773Z,98.42
2019-01-23T00:33:25.174Z,99.70
2019-01-23T00:35:56.294Z,92.30
2019-01-23T00:38:26.915Z,93.42
2019-01-23T00:40:56.181Z,105.10
2019-01-23T00:43:25.795Z,102.45
2019-01-23T00:45:55.357Z,110.40
2019-01-23T00:48:24.545Z,104.72
2019-01-23T00:50:53.852Z,108.52
2019-01-23T00:53:23.269Z,106.63
2019-01-23T00:55:52.523Z,114.30
2019-01-23T00:58:21.794Z,115.03
2019-01-23T01:00:51.110Z,107.90
2019-01-23T01:03:23.173Z,98.52
2019-01-23T01:05:52.522Z,101.27
2019-01-23T01:08:21.921Z,97.33
2019-01-23T01:10:51.227Z,101.05
2019-01-23T01:13:20.595Z,107.95
2019-01-23T01:15:49.983Z,96.95
2019-01-23T01:18:19.276Z,103.20
2019-01-23T01:20:48.758Z,98.00
2019-01-23T01:23:18.059Z,101.60
2019-01-23T01:25:47.363Z,94.65
2019-01-23T01:28:16.707Z,92.70
2019-01-23T01:30:46.806Z,81.32
2019-01-23T01:33:16.155Z,83.07
2019-01-23T01:35:45.346Z,81.25
2019-01-23T01:38:14.858Z,74.55
2019-01-23T01:40:44.240Z,76.40
2019-01-23T01:43:13.598Z,83.90
2019-01-23T01:45:43.634Z,81.25
2019-01-23T01:48:12.963Z,82.47
2019-01-23T01:50:42.244Z,84.07
2019-01-23T01:53:11.558Z,81.80
2019-01-23T01:55:40.838Z,87.33
2019-01-23T01:58:10.339Z,74.67
2019-01-23T02:00:39.727Z,59.67
2019-01-23T02:03:09.018Z,71.60
2019-01-23T02:05:38.215Z,72.42
2019-01-23T02:08:07.522Z,76.40
2019-01-23T02:10:37.383Z,80.80
2019-01-23T02:13:06.740Z,85.50
2019-01-23T02:15:36.120Z,80.83
2019-01-23T02:18:05.463Z,68.90
2019-01-23T02:20:34.722Z,75.60
2019-01-23T02:23:05.183Z,77.20
2019-01-23T02:25:34.555Z,78.35
2019-01-23T02:28:03.826Z,89.03
2019-01-23T02:30:33.185Z,88.80
2019-01-23T02:33:02.370Z,82.15
2019-01-23T02:35:31.624Z,81.75
2019-01-23T02:38:00.928Z,76.95
2019-01-23T02:40:30.305Z,74.00
2019-01-23T02:42:59.503Z,88.60
2019-01-23T02:45:31.057Z,92.00
2019-01-23T02:48:00.772Z,92.47
2019-01-23T02:50:29.960Z,75.97
2019-01-23T02:52:59.296Z,77.10
2019-01-23T02:55:28.590Z,73.65
2019-01-23T02:57:57.948Z,73.00
2019-01-23T03:00:27.351Z,67.82
2019-01-23T03:02:56.622Z,73.10
2019-01-23T03:05:25.949Z,74.55
2019-01-23T03:07:55.343Z,73.15
2019-01-23T03:10:24.617Z,78.55
2019-01-23T03:12:56.786Z,72.12
2019-01-23T03:15:28.467Z,70.15
2019-01-23T03:17:58.048Z,58.65
2019-01-23T03:20:29.364Z,76.77
2019-01-23T03:22:58.638Z,70.60
2019-01-23T03:25:29.031Z,71.05
2019-01-23T03:27:58.319Z,73.33
2019-01-23T03:30:27.713Z,70.03
2019-01-23T03:32:56.941Z,67.45
2019-01-23T03:35:26.337Z,73.90
2019-01-23T03:37:55.631Z,69.00
2019-01-23T03:40:24.894Z,65.85
2019-01-23T03:42:54.211Z,66.12
2019-01-23T03:45:23.613Z,54.40
2019-01-23T03:47:52.883Z,65.92
2019-01-23T03:50:22.512Z,66.07
2019-01-23T03:52:52.863Z,65.92
2019-01-23T03:55:22.426Z,60.75
2019-01-23T03:57:51.974Z,64.37
2019-01-23T04:00:22.795Z,67.15
2019-01-23T04:02:53.511Z,68.07
2019-01-23T04:05:22.985Z,68.37
2019-01-23T04:07:52.407Z,67.00
2019-01-23T04:10:21.604Z,70.40
2019-01-23T04:12:50.954Z,70.57
2019-01-23T04:15:20.301Z,66.02
2019-01-23T04:17:49.513Z,64.90
2019-01-23T04:20:23.650Z,73.33
2019-01-23T04:22:53.392Z,83.25
2019-01-23T04:25:22.730Z,76.28
2019-01-23T04:27:51.995Z,70.30
2019-01-23T04:30:22.707Z,71.97
2019-01-23T04:32:52.024Z,69.42
2019-01-23T04:35:21.518Z,61.18
2019-01-23T04:37:50.955Z,65.75
2019-01-23T04:40:20.302Z,53.75
2019-01-23T04:42:49.719Z,55.28
2019-01-23T04:45:20.120Z,52.20
2019-01-23T04:47:49.471Z,57.30
2019-01-23T04:50:19.030Z,63.20
2019-01-23T04:53:02.496Z,53.02
2019-01-23T04:55:32.281Z,59.93
2019-01-23T04:58:01.678Z,70.08
2019-01-23T05:00:31.321Z,69.05
2019-01-23T05:03:00.611Z,65.78
2019-01-23T05:05:29.971Z,70.92
2019-01-23T05:07:59.279Z,67.47
2019-01-23T05:10:29.008Z,76.62
2019-01-23T05:12:58.298Z,70.37
2019-01-23T05:15:27.488Z,72.95
2019-01-23T05:17:57.043Z,67.05
2019-01-23T05:20:26.266Z,63.08
2019-01-23T05:22:55.606Z,64.17
2019-01-23T05:25:25.008Z,66.07
2019-01-23T05:27:54.391Z,69.12
2019-01-23T05:30:25.018Z,70.92
2019-01-23T05:32:54.368Z,77.10
2019-01-23T05:35:23.781Z,78.28
2019-01-23T05:37:53.090Z,72.00
2019-01-23T05:40:22.476Z,78.78
2019-01-23T05:42:53.443Z,102.50
2019-01-23T05:45:22.733Z,102.82
2019-01-23T05:47:52.050Z,99.70
2019-01-23T05:50:21.354Z,82.42
2019-01-23T05:52:50.683Z,89.05
2019-01-23T05:55:20.999Z,90.40
2019-01-23T05:57:51.373Z,72.75
2019-01-23T06:00:21.983Z,60.00
2019-01-23T06:02:51.422Z,72.95
2019-01-23T06:05:21.302Z,67.35
2019-01-23T06:07:50.490Z,68.60
2019-01-23T06:10:19.793Z,72.42
2019-01-23T06:12:48.970Z,72.47
2019-01-23T06:15:18.308Z,72.53
2019-01-23T06:17:47.562Z,81.82
2019-01-23T06:20:18.198Z,71.07
2019-01-23T06:22:47.647Z,72.05
2019-01-23T06:25:17.571Z,83.47
2019-01-23T06:27:46.831Z,78.12
2019-01-23T06:30:21.381Z,69.30
2019-01-23T06:32:50.675Z,72.45
2019-01-23T06:35:20.019Z,74.30
2019-01-23T06:37:49.689Z,68.87
2019-01-23T06:40:18.995Z,71.50
2019-01-23T06:42:48.298Z,69.20
2019-01-23T06:45:18.247Z,64.55
2019-01-23T06:47:47.954Z,68.47
2019-01-23T06:50:18.840Z,75.78
2019-01-23T06:52:48.190Z,68.00
2019-01-23T06:55:17.462Z,73.47
2019-01-23T06:57:47.153Z,72.53
2019-01-23T07:00:18.486Z,72.00
2019-01-23T07:02:47.938Z,66.60
2019-01-23T07:05:17.999Z,56.08
2019-01-23T07:07:47.751Z,66.42
2019-01-23T07:10:19.410Z,63.73
2019-01-23T07:12:49.174Z,67.72
2019-01-23T07:15:19.161Z,58.78
2019-01-23T07:17:48.426Z,72.00
2019-01-23T07:20:22.833Z,68.62
2019-01-23T07:22:52.386Z,70.90
2019-01-23T07:25:21.840Z,57.62
2019-01-23T07:27:51.044Z,77.75
2019-01-23T07:30:24.341Z,72.90
2019-01-23T07:32:53.963Z,70.52
2019-01-23T07:35:23.160Z,75.70
2019-01-23T07:37:52.387Z,78.37
2019-01-23T07:40:21.771Z,94.70
2019-01-23T07:42:50.986Z,89.85
2019-01-23T07:45:20.942Z,84.62
2019-01-23T07:47:50.530Z,75.15
2019-01-23T07:50:19.926Z,61.00
2019-01-23T07:52:49.265Z,78.05
2019-01-23T07:55:18.770Z,68.78
2019-01-23T07:57:47.969Z,79.55
2019-01-23T08:00:19.342Z,70.90
2019-01-23T08:02:48.730Z,75.30
2019-01-23T08:05:20.643Z,77.87
2019-01-23T08:07:50.014Z,74.50
2019-01-23T08:10:19.661Z,70.78
2019-01-23T08:12:48.928Z,80.97
2019-01-23T08:15:26.411Z,71.42
2019-01-23T08:17:57.958Z,83.97
2019-01-23T08:20:27.343Z,75.15
2019-01-23T08:22:56.874Z,74.37
2019-01-23T08:25:26.183Z,70.10
2019-01-23T08:27:55.567Z,68.12
2019-01-23T08:30:24.966Z,67.30
2019-01-23T08:32:54.768Z,66.02
2019-01-23T08:35:24.913Z,63.30
2019-01-23T08:37:56.399Z,65.80
2019-01-23T08:40:25.733Z,64.10
2019-01-23T08:42:55.084Z,54.70
2019-01-23T08:45:24.390Z,64.37
2019-01-23T08:47:53.755Z,61.85
2019-01-23T08:50:25.864Z,60.80
2019-01-23T08:52:55.262Z,58.58
2019-01-23T08:55:24.527Z,65.57
2019-01-23T08:57:53.923Z,54.77
2019-01-23T09:00:23.142Z,55.15
2019-01-23T09:02:52.688Z,58.87
2019-01-23T09:05:22.114Z,59.23
2019-01-23T09:07:51.395Z,58.92
2019-01-23T09:10:21.832Z,60.08
2019-01-23T09:12:51.249Z,59.55
2019-01-23T09:15:20.642Z,67.82
2019-01-23T09:17:49.882Z,65.17
2019-01-23T09:20:19.442Z,69.92
2019-01-23T09:22:48.742Z,74.75
2019-01-23T09:25:19.519Z,70.92
2019-01-23T09:27:50.235Z,65.87
2019-01-23T09:30:25.073Z,70.05
2019-01-23T09:33:44.595Z,73.25
2019-01-23T09:36:32.362Z,73.12
2019-01-23T09:39:36.658Z,69.00
2019-01-23T09:42:45.995Z,66.47
2019-01-23T09:46:02.172Z,62.88
2019-01-23T09:48:55.631Z,62.23
2019-01-23T09:52:07.815Z,69.12
2019-01-23T09:54:37.350Z,63.45
2019-01-23T09:57:06.699Z,61.28
2019-01-23T09:59:36.427Z,69.12
2019-01-23T10:02:05.760Z,67.82
2019-01-23T10:04:34.980Z,52.62
2019-01-23T10:07:04.183Z,69.07
2019-01-23T10:09:34.001Z,65.03
2019-01-23T10:12:03.357Z,66.90
2019-01-23T10:14:32.638Z,64.05
2019-01-23T10:17:01.996Z,69.42
2019-01-23T10:19:31.319Z,68.55
2019-01-23T10:22:00.596Z,67.87
2019-01-23T10:24:35.694Z,61.08
2019-01-23T10:27:00.923Z,66.17
2019-01-23T10:29:30.454Z,67.30
2019-01-23T10:31:59.690Z,60.10
2019-01-23T10:34:29.062Z,65.20
2019-01-23T10:36:59.416Z,68.55
2019-01-23T10:39:28.699Z,61.88
2019-01-23T10:41:58.011Z,63.60
2019-01-23T10:44:27.434Z,64.10
2019-01-23T10:46:56.735Z,64.92
2019-01-23T10:49:26.101Z,65.30
2019-01-23T10:51:55.690Z,60.03
2019-01-23T10:54:25.039Z,66.15
2019-01-23T10:56:54.350Z,57.33
2019-01-23T10:59:26.722Z,49.90
2019-01-23T11:01:56.107Z,60.43
2019-01-23T11:04:25.377Z,57.67
2019-01-23T11:06:54.765Z,51.77
2019-01-23T11:09:24.166Z,51.35
2019-01-23T11:11:53.563Z,55.95
2019-01-23T11:14:22.897Z,56.65
2019-01-23T11:16:52.518Z,56.83
2019-01-23T11:19:22.782Z,56.28
2019-01-23T11:21:52.046Z,59.87
2019-01-23T11:24:21.449Z,58.83
2019-01-23T11:26:53.032Z,60.50
2019-01-23T11:29:22.391Z,58.75
2019-01-23T11:31:53.978Z,55.00
2019-01-23T11:34:23.266Z,57.25
2019-01-23T11:36:52.575Z,56.90
2019-01-23T11:39:21.876Z,51.83
2019-01-23T11:41:51.240Z,57.45
2019-01-23T11:44:22.059Z,57.53
2019-01-23T11:46:51.275Z,60.63
2019-01-23T11:49:20.698Z,59.83
2019-01-23T11:51:51.326Z,54.70
2019-01-23T11:54:20.711Z,57.53
2019-01-23T11:56:50.089Z,55.48
2019-01-23T11:59:19.545Z,60.85
2019-01-23T12:01:48.868Z,58.30
2019-01-23T12:04:18.228Z,59.90
2019-01-23T12:06:47.811Z,54.53
2019-01-23T12:09:17.005Z,53.30
2019-01-23T12:11:46.307Z,48.33
2019-01-23T12:14:15.770Z,41.77
2019-01-23T12:16:45.042Z,47.30
2019-01-23T12:19:14.351Z,57.62
2019-01-23T12:21:43.655Z,49.70
2019-01-23T12:24:13.063Z,48.50
2019-01-23T12:26:42.392Z,52.57
2019-01-23T12:29:11.786Z,53.67
2019-01-23T12:31:41.003Z,54.80
2019-01-23T12:34:10.226Z,55.52
2019-01-23T12:36:39.572Z,60.00
2019-01-23T12:39:09.398Z,58.15
2019-01-23T12:41:38.719Z,64.27
2019-01-23T12:44:08.186Z,56.33
2019-01-23T12:46:37.517Z,55.60
2019-01-23T12:49:06.915Z,61.17
2019-01-23T12:51:36.639Z,52.13
2019-01-23T12:54:06.335Z,53.15
2019-01-23T12:56:37.410Z,52.65
2019-01-23T12:59:06.691Z,53.77
2019-01-23T13:01:41.979Z,53.53
2019-01-23T13:04:07.187Z,51.13
2019-01-23T13:06:36.619Z,54.42
2019-01-23T13:09:08.752Z,48.70
2019-01-23T13:11:40.245Z,48.85
2019-01-23T13:14:09.534Z,54.25
2019-01-23T13:16:38.746Z,49.25
2019-01-23T13:19:08.130Z,52.48
2019-01-23T13:21:37.437Z,52.33
2019-01-23T13:24:06.785Z,51.23
2019-01-23T13:26:36.062Z,50.85
2019-01-23T13:29:05.490Z,55.95
2019-01-23T13:31:34.693Z,52.65
2019-01-23T13:34:03.966Z,52.27
2019-01-23T13:36:33.219Z,53.90
2019-01-23T13:39:02.607Z,52.50
2019-01-23T13:41:31.951Z,52.62
2019-01-23T13:44:01.240Z,58.17
2019-01-23T13:46:30.490Z,53.60
2019-01-23T13:49:02.164Z,55.15
2019-01-23T13:51:31.539Z,52.90
2019-01-23T13:54:00.793Z,45.20
2019-01-23T13:56:30.083Z,50.73
2019-01-23T13:58:59.727Z,39.70
2019-01-23T14:01:29.069Z,51.58
2019-01-23T14:03:58.426Z,50.88
2019-01-23T14:06:27.664Z,54.67
2019-01-23T14:08:56.887Z,50.40
2019-01-23T14:11:26.206Z,49.95
2019-01-23T14:13:56.362Z,46.40
2019-01-23T14:16:45.975Z,53.28
2019-01-23T14:19:15.614Z,49.40
2019-01-23T14:21:44.840Z,41.55
2019-01-23T14:24:14.279Z,48.02
2019-01-23T14:26:43.675Z,44.08
2019-01-23T14:29:12.933Z,44.70
2019-01-23T14:31:42.322Z,45.35
2019-01-23T14:34:12.647Z,49.75
2019-01-23T14:36:41.944Z,43.33
2019-01-23T14:39:11.232Z,51.77
2019-01-23T14:41:40.818Z,47.50
2019-01-23T14:44:10.215Z,54.18
2019-01-23T14:46:39.490Z,59.85
2019-01-23T14:49:08.903Z,56.80
2019-01-23T14:51:38.206Z,53.60
2019-01-23T14:54:07.472Z,52.60
2019-01-23T14:56:38.260Z,65.15
2019-01-23T14:59:07.647Z,59.20
2019-01-23T15:01:37.251Z,51.08
2019-01-23T15:04:06.483Z,49.42
2019-01-23T15:06:35.711Z,54.30
2019-01-23T15:09:07.895Z,52.20
2019-01-23T15:11:37.111Z,56.23
2019-01-23T15:14:06.534Z,49.03
2019-01-23T15:16:35.809Z,53.87
2019-01-23T15:19:05.247Z,47.40
2019-01-23T15:21:34.600Z,50.55
2019-01-23T15:24:04.015Z,56.08
2019-01-23T15:26:33.672Z,49.40
2019-01-23T15:29:03.007Z,49.80
2019-01-23T15:31:32.333Z,47.60
2019-01-23T15:34:01.740Z,50.52
2019-01-23T15:36:31.035Z,50.40
2019-01-23T15:39:00.289Z,49.53
2019-01-23T15:41:29.658Z,53.33
2019-01-23T15:43:58.967Z,50.55
2019-01-23T15:46:28.274Z,55.43
2019-01-23T15:49:00.225Z,52.55
2019-01-23T15:51:29.500Z,51.13
2019-01-23T15:53:58.797Z,57.08
2019-01-23T15:56:28.142Z,54.30
2019-01-23T15:58:57.403Z,58.48
2019-01-23T16:01:27.151Z,55.15
2019-01-23T16:03:58.391Z,57.75
2019-01-23T16:06:27.352Z,55.33
2019-01-23T16:08:57.935Z,47.65
2019-01-23T16:11:27.199Z,55.63
2019-01-23T16:13:56.511Z,48.42
2019-01-23T16:16:25.814Z,50.70
2019-01-23T16:18:55.239Z,46.35
2019-01-23T16:21:24.587Z,42.48
2019-01-23T16:23:53.807Z,46.28
2019-01-23T16:26:23.206Z,43.10
2019-01-23T16:28:52.481Z,49.83
2019-01-23T16:31:23.052Z,43.80
2019-01-23T16:33:53.267Z,44.58
2019-01-23T16:36:22.535Z,48.80
2019-01-23T16:38:51.848Z,43.75
2019-01-23T16:41:21.376Z,54.40
2019-01-23T16:43:50.699Z,52.03
2019-01-23T16:46:20.309Z,43.95
2019-01-23T16:48:50.899Z,52.10
2019-01-23T16:51:21.412Z,44.18
2019-01-23T16:53:50.705Z,46.48
2019-01-23T16:56:20.135Z,38.78
2019-01-23T16:58:49.639Z,37.53
2019-01-23T17:01:18.996Z,43.05
2019-01-23T17:03:49.714Z,30.37
2019-01-23T17:06:19.027Z,39.73
2019-01-23T17:08:48.339Z,39.48
2019-01-23T17:11:17.631Z,40.73
2019-01-23T17:13:46.941Z,43.38
2019-01-23T17:16:16.300Z,37.50
2019-01-23T17:18:45.494Z,50.15
2019-01-23T17:21:28.106Z,42.78
2019-01-23T17:23:57.391Z,43.05
2019-01-23T17:26:26.774Z,44.63
2019-01-23T17:28:58.324Z,46.33
2019-01-23T17:31:28.690Z,52.65
2019-01-23T17:33:59.392Z,47.70
2019-01-23T17:36:28.815Z,54.00
2019-01-23T17:38:58.163Z,58.28
2019-01-23T17:41:27.716Z,48.15
2019-01-23T17:43:57.194Z,54.23
2019-01-23T17:46:26.391Z,51.75
2019-01-23T17:48:55.903Z,47.75
2019-01-23T17:51:25.384Z,46.20
2019-01-23T17:53:54.837Z,55.28
2019-01-23T17:56:25.334Z,54.55
2019-01-23T17:58:54.634Z,67.70
2019-01-23T18:01:23.935Z,63.35
2019-01-23T18:03:53.272Z,55.65
2019-01-23T18:06:22.470Z,37.88
2019-01-23T18:08:51.696Z,47.15
2019-01-23T18:11:21.267Z,48.25
2019-01-23T18:13:50.676Z,46.35
2019-01-23T18:16:20.043Z,43.30
2019-01-23T18:18:49.415Z,46.42
2019-01-23T18:21:18.679Z,41.37
2019-01-23T18:23:47.875Z,42.03
2019-01-23T18:26:17.180Z,39.63
2019-01-23T18:28:46.471Z,40.12
2019-01-23T18:31:42.572Z,41.08
2019-01-23T18:34:36.047Z,37.15
2019-01-23T18:37:39.560Z,33.55
2019-01-23T18:40:44.866Z,35.25
2019-01-23T18:44:10.174Z,39.30
2019-01-23T18:47:26.404Z,34.53
2019-01-23T18:50:41.501Z,38.40
2019-01-23T18:53:10.907Z,39.18
2019-01-23T18:55:40.316Z,43.13
2019-01-23T18:58:09.621Z,33.75
2019-01-23T19:00:39.400Z,47.80
2019-01-23T19:03:08.715Z,44.03
2019-01-23T19:05:38.051Z,45.50
2019-01-23T19:08:08.405Z,54.00
2019-01-23T19:10:39.118Z,48.65
2019-01-23T19:13:08.599Z,48.10
2019-01-23T19:15:37.861Z,47.80
2019-01-23T19:18:07.183Z,49.20
2019-01-23T19:20:36.767Z,45.60
2019-01-23T19:23:07.421Z,41.18
2019-01-23T19:25:38.676Z,47.62
2019-01-23T19:28:07.887Z,47.03
2019-01-23T19:30:37.173Z,48.13
2019-01-23T19:33:13.559Z,44.40
2019-01-23T19:35:41.125Z,52.08
2019-01-23T19:38:10.518Z,45.48
2019-01-23T19:40:39.776Z,53.98
2019-01-23T19:43:10.092Z,48.73
2019-01-23T19:45:39.400Z,72.50
2019-01-23T19:48:08.748Z,51.50
2019-01-23T19:50:38.102Z,64.30
2019-01-23T19:53:07.508Z,47.30
2019-01-23T19:55:36.876Z,52.17
2019-01-23T19:58:06.234Z,56.65
2019-01-23T20:00:35.935Z,57.15
2019-01-23T20:03:05.476Z,54.35
2019-01-23T20:05:34.880Z,59.55
2019-01-23T20:08:04.396Z,55.58
2019-01-23T20:10:33.918Z,53.83
2019-01-23T20:13:04.394Z,52.33
2019-01-23T20:15:33.690Z,48.63
2019-01-23T20:18:09.497Z,51.65
2019-01-23T20:20:38.899Z,55.63
2019-01-23T20:23:08.169Z,50.17
2019-01-23T20:25:39.364Z,52.55
2019-01-23T20:28:10.843Z,49.95
2019-01-23T20:30:41.988Z,48.98
2019-01-23T20:33:11.561Z,51.50
2019-01-23T20:35:40.952Z,51.90
2019-01-23T20:38:10.243Z,52.75
2019-01-23T20:40:40.824Z,53.20
2019-01-23T20:43:10.164Z,51.60
2019-01-23T20:45:39.506Z,59.35
2019-01-23T20:48:10.312Z,40.65
2019-01-23T20:50:39.689Z,42.48
2019-01-23T20:53:09.260Z,47.53
2019-01-23T20:55:38.816Z,39.58
2019-01-23T20:58:08.661Z,38.95
2019-01-23T21:00:38.553Z,45.33
2019-01-23T21:03:07.994Z,52.48
2019-01-23T21:05:39.689Z,46.48
2019-01-23T21:08:08.989Z,47.15
2019-01-23T21:10:38.546Z,41.70
2019-01-23T21:13:08.148Z,45.45
2019-01-23T21:15:40.300Z,44.60
2019-01-23T21:18:10.606Z,44.13
2019-01-23T21:20:41.973Z,41.95
2019-01-23T21:23:13.104Z,45.67
2019-01-23T21:25:42.565Z,48.33
2019-01-23T21:28:12.136Z,46.88
2019-01-23T21:30:41.485Z,43.87
2019-01-23T21:33:10.843Z,45.78
2019-01-23T21:35:41.225Z,42.70
2019-01-23T21:38:12.898Z,45.50
2019-01-23T21:40:42.259Z,49.35
2019-01-23T21:43:11.854Z,49.70
2019-01-23T21:45:41.246Z,46.88
2019-01-23T21:48:10.622Z,55.78
2019-01-23T21:50:39.921Z,51.85
2019-01-23T21:53:09.220Z,47.93
2019-01-23T21:55:41.635Z,52.48
2019-01-23T21:58:11.463Z,43.42
2019-01-23T22:00:43.699Z,50.00
2019-01-23T22:03:15.358Z,43.95
2019-01-23T22:05:45.639Z,51.73
2019-01-23T22:08:14.951Z,58.00
2019-01-23T22:10:44.307Z,62.25
2019-01-23T22:13:13.581Z,60.67
2019-01-23T22:15:43.388Z,65.05
2019-01-23T22:18:14.708Z,66.45
2019-01-23T22:20:47.554Z,72.03
2019-01-23T22:23:19.161Z,49.23
2019-01-23T22:25:49.998Z,45.03
2019-01-23T22:28:25.522Z,45.00
2019-01-23T22:30:55.638Z,43.13
2019-01-23T22:33:25.788Z,46.58
2019-01-23T22:35:55.751Z,43.20
2019-01-23T22:38:25.644Z,43.80
2019-01-23T22:40:55.599Z,44.00
2019-01-23T22:43:25.185Z,46.40
2019-01-23T22:45:55.013Z,48.30
2019-01-23T22:48:25.832Z,43.50
2019-01-23T22:50:55.455Z,43.15
2019-01-23T22:53:25.131Z,42.90
2019-01-23T22:55:56.122Z,46.08
2019-01-23T22:58:28.506Z,42.90
2019-01-23T23:01:21.159Z,41.40
2019-01-23T23:03:50.784Z,42.17
2019-01-23T23:06:20.015Z,38.95
2019-01-23T23:08:50.513Z,44.13
2019-01-23T23:11:20.079Z,43.13
2019-01-23T23:13:49.448Z,46.68
2019-01-23T23:16:18.793Z,42.78
2019-01-23T23:18:48.383Z,44.27
2019-01-23T23:21:17.727Z,39.63
2019-01-23T23:23:47.026Z,49.95
2019-01-23T23:26:16.309Z,44.38
2019-01-23T23:28:45.504Z,46.95
2019-01-23T23:31:14.883Z,48.10
2019-01-23T23:33:44.287Z,52.60
2019-01-23T23:36:14.157Z,42.17
2019-01-23T23:38:43.502Z,44.67
2019-01-23T23:41:13.135Z,43.40
2019-01-23T23:43:42.426Z,45.25
2019-01-23T23:46:12.475Z,46.35
2019-01-23T23:48:41.686Z,45.20
2019-01-23T23:51:10.882Z,44.23
2019-01-23T23:53:40.167Z,45.30
2019-01-23T23:56:09.667Z,46.45
2019-01-23T23:58:39.010Z,45.58
